Hlavní strana
METAR-TAF:

METAR-TAF

Letiště :

Buffalo Narrows, Manitoba, Kanada

zeměpisná šířka: 55-50N, zeměpisná délka: 108-27W, výška: 434 m

Aktuální stav počasí

Zpráva byla vytvořena před 1 hodinou a 11 minutami, v 13:00 UTC
Jihozápadní vítr 2 kt
Teplota 11°C
Vlhkost vzduchu 87%
Tlak 1025 hPa
Viditelnost: 24.1 km
Skoro jasno ve výšce 8000 ft
Skoro jasno ve výšce 10000 ft
Skoro jasno ve výšce 12000 ft
Skoro jasno ve výšce 25000 ft

METAR: CYVT 201300Z 23002KT 15SM FEW080 FEW100 FEW120 FEW250 11/09 A3028 RMK AC1AC1AC1CI1 AC TR AC TR SLP265

Čas: 09:11 (14:11 UTC)

Předpověď počasí

Zpráva byla vytvořena před 33 minutami, v 13:38 UTC
Předpověď platná od 20 v 14 UTC do 21 v 02 UTC
Západojihozápadní vítr 3 kt
Viditelnost: 10 km
Skoro jasno ve výšce 10000 ft
Polojasno ve výšce 25000 ft
Změna
od 20 v 14 UTC do 20 v 16 UTC
Západoseverozápadní vítr 6 kt

TAF: CYVT 201338Z 2014/2102 24003KT P6SM FEW100 SCT250 BECMG 2014/2016 30006KT RMK NXT FCST BY 201900Z

Stav a předpovědi počasí z více než 4 000 letišť (zprávy METAR a TAF).

Červené a žluté tečky na mapě představují dostupné meteorologické stanice.

Když kurzor umístíte na tečku, zobrazí se název stanice.

Pak kliknutím zobrazíte stav a předpověď počasí.

Chcete-li změnit mapu, kliknutím na zelené tlačítko se znaménkem +mapu přiblížíte, kliknutím na zelené tlačítko se znaménkem – mapu oddálíte a kliknutím na zelené šipky přejdete na sousední mapy.


METAR-TAF: